< < Back
Terminal Aerodrome Forecast


Current Version              Previous Versions:   1  2  3  4  5  6  7  8  9  

Terminal Aerodrome Forecast

336
FTAK31 PAJN 231600 AAA
TAFAGS
TAF AMD
PAGS 231607Z 2316/2412 10008KT P6SM SCT025 OVC040
      TEMPO 2316/2320 6SM -SHRA BKN025 OVC040
     FM240400 14005KT P6SM VCSH OVC050
      AMD NOT SKED=

Latest METAR

737
SAUS70 KWBC 231600 RRM
MTRAGS
METAR KAGS 231553Z 10004KT 3SM -RA BR OVC008 14/13 A3006 RMK AO2 CIG
005V011 SLP178 P0010 T01390133


USA.gov is the U.S. government's official web portal to all federal, state and local government web resources and services.